YPKG/KGI METAR and TAF weather

Enter ICAO airport designator
Station Type Date Time Source
YPKG METAR 2019/04/26 04:30 UTC NOAA

YPKG 260430Z AUTO 07011KT 9999 // BKN034 19/09 Q1028 RF00.0/000.0


Station Type Date Time Source
YPKG Decoded METAR 2019/04/26 04:30 UTC NOAA

Kalgoorlie Boulder Amo, Australia (YPKG) 30-47S 121-27E 370M
Apr 26, 2019 - 12:30 AM EDT / 2019.04.26 0430 UTC
Wind: from the ENE (070 degrees) at 13 MPH (11 KT):0
Visibility: greater than 7 mile(s):0
Sky conditions: mostly cloudy
Temperature: 66 F (19 C)
Dew Point: 48 F (9 C)
Relative Humidity: 52%
Pressure (altimeter): 30.36 in. Hg (1028 hPa)
ob: YPKG 260430Z AUTO 07011KT 9999 // BKN034 19/09 Q1028 RF00.0/000.0
cycle: 4

Station Type Date Time Source
YPKG TAF 2019/04/26 03:00 UTC NOAA

TAF
AMD YPKG 260305Z 2603/2624 10012KT 9999 BKN030
BECMG 2604/2606 08010KT CAVOK

Example: see airport list